sensor_id;sensor_type;location;lat;lon;timestamp;P1;durP1;ratioP1;P2;durP2;ratioP2
54458;SDS011;40368;49.350;8.152;2023-09-18T00:00:00;29;;;81;;
54458;SDS011;40368;49.350;8.152;2023-09-18T00:01:00;33;;;68;;
54458;SDS011;40368;49.350;8.152;2023-09-18T00:02:00;29;;;69;;
54458;SDS011;40368;49.350;8.152;2023-09-18T00:03:00;30;;;81;;
54458;SDS011;40368;49.350;8.152;2023-09-18T00:04:00;37;;;100;;
54458;SDS011;40368;49.350;8.152;2023-09-18T00:05:00;29;;;69;;
54458;SDS011;40368;49.350;8.152;2023-09-18T00:06:00;29;;;65;;
54458;SDS011;40368;49.350;8.152;2023-09-18T00:07:00;30;;;79;;
54458;SDS011;40368;49.350;8.152;2023-09-18T00:08:00;39;;;88;;
54458;SDS011;40368;49.350;8.152;2023-09-18T00:09:00;48;;;94;;
54458;SDS011;40368;49.350;8.152;2023-09-18T00:10:00;42;;;91;;
54458;SDS011;40368;49.350;8.152;2023-09-18T00:11:00;32;;;94;;
54458;SDS011;40368;49.350;8.152;2023-09-18T00:12:00;34;;;117;;
54458;SDS011;40368;49.350;8.152;2023-09-18T00:13:00;32;;;88;;
54458;SDS011;40368;49.350;8.152;2023-09-18T00:14:00;31;;;75;;
54458;SDS011;40368;49.350;8.152;2023-09-18T00:15:00;32;;;75;;
54458;SDS011;40368;49.350;8.152;2023-09-18T00:16:00;30;;;97;;
54458;SDS011;40368;49.350;8.152;2023-09-18T00:17:00;25;;;35;;
54458;SDS011;40368;49.350;8.152;2023-09-18T00:18:00;34;;;112;;
54458;SDS011;40368;49.350;8.152;2023-09-18T00:19:00;27;;;55;;
54458;SDS011;40368;49.350;8.152;2023-09-18T00:20:00;26;;;46;;
54458;SDS011;40368;49.350;8.152;2023-09-18T00:21:00;33;;;70;;
54458;SDS011;40368;49.350;8.152;2023-09-18T00:22:00;39;;;82;;
54458;SDS011;40368;49.350;8.152;2023-09-18T00:23:00;31;;;102;;
54458;SDS011;40368;49.350;8.152;2023-09-18T00:24:00;28;;;58;;
54458;SDS011;40368;49.350;8.152;2023-09-18T00:25:00;27;;;60;;
54458;SDS011;40368;49.350;8.152;2023-09-18T00:26:00;26;;;61;;
54458;SDS011;40368;49.350;8.152;2023-09-18T00:27:00;29;;;64;;
54458;SDS011;40368;49.350;8.152;2023-09-18T00:28:00;36;;;96;;
54458;SDS011;40368;49.350;8.152;2023-09-18T00:29:00;35;;;87;;
54458;SDS011;40368;49.350;8.152;2023-09-18T00:30:05;27;;;58;;
54458;SDS011;40368;49.350;8.152;2023-09-18T00:31:00;28;;;59;;
54458;SDS011;40368;49.350;8.152;2023-09-18T00:32:00;32;;;64;;
54458;SDS011;40368;49.350;8.152;2023-09-18T00:33:00;28;;;68;;
54458;SDS011;40368;49.350;8.152;2023-09-18T00:34:00;29;;;72;;
54458;SDS011;40368;49.350;8.152;2023-09-18T00:35:00;40;;;96;;
54458;SDS011;40368;49.350;8.152;2023-09-18T00:36:00;33;;;79;;
54458;SDS011;40368;49.350;8.152;2023-09-18T00:37:00;30;;;59;;
54458;SDS011;40368;49.350;8.152;2023-09-18T00:38:00;32;;;72;;
54458;SDS011;40368;49.350;8.152;2023-09-18T00:39:00;29;;;53;;
54458;SDS011;40368;49.350;8.152;2023-09-18T00:40:00;29;;;54;;
54458;SDS011;40368;49.350;8.152;2023-09-18T00:41:00;32;;;69;;
54458;SDS011;40368;49.350;8.152;2023-09-18T00:42:00;27;;;48;;
54458;SDS011;40368;49.350;8.152;2023-09-18T00:43:00;25;;;52;;
54458;SDS011;40368;49.350;8.152;2023-09-18T00:44:00;25;;;58;;
54458;SDS011;40368;49.350;8.152;2023-09-18T00:45:00;27;;;55;;
54458;SDS011;40368;49.350;8.152;2023-09-18T00:46:00;26;;;82;;
54458;SDS011;40368;49.350;8.152;2023-09-18T00:47:00;28;;;80;;
54458;SDS011;40368;49.350;8.152;2023-09-18T00:48:00;30;;;67;;
54458;SDS011;40368;49.350;8.152;2023-09-18T00:49:00;28;;;99;;
54458;SDS011;40368;49.350;8.152;2023-09-18T00:50:00;27;;;69;;
54458;SDS011;40368;49.350;8.152;2023-09-18T00:51:01;25;;;74;;
54458;SDS011;40368;49.350;8.152;2023-09-18T00:52:00;32;;;65;;
54458;SDS011;40368;49.350;8.152;2023-09-18T00:53:00;28;;;79;;
54458;SDS011;40368;49.350;8.152;2023-09-18T00:54:00;27;;;98;;
54458;SDS011;40368;49.350;8.152;2023-09-18T00:55:00;30;;;69;;
54458;SDS011;40368;49.350;8.152;2023-09-18T00:56:00;27;;;58;;
54458;SDS011;40368;49.350;8.152;2023-09-18T00:57:00;29;;;57;;
54458;SDS011;40368;49.350;8.152;2023-09-18T01:00:01;27;;;54;;
54458;SDS011;40368;49.350;8.152;2023-09-18T01:01:00;27;;;98;;
54458;SDS011;40368;49.350;8.152;2023-09-18T01:02:00;27;;;58;;
54458;SDS011;40368;49.350;8.152;2023-09-18T01:03:00;26;;;64;;
54458;SDS011;40368;49.350;8.152;2023-09-18T01:04:00;29;;;89;;
54458;SDS011;40368;49.350;8.152;2023-09-18T01:05:00;26;;;84;;
54458;SDS011;40368;49.350;8.152;2023-09-18T01:06:00;29;;;77;;
54458;SDS011;40368;49.350;8.152;2023-09-18T01:07:00;26;;;90;;
54458;SDS011;40368;49.350;8.152;2023-09-18T01:08:00;28;;;81;;
54458;SDS011;40368;49.350;8.152;2023-09-18T01:09:00;27;;;55;;
54458;SDS011;40368;49.350;8.152;2023-09-18T01:10:00;25;;;58;;
54458;SDS011;40368;49.350;8.152;2023-09-18T01:11:02;29;;;79;;
54458;SDS011;40368;49.350;8.152;2023-09-18T01:12:01;30;;;63;;
54458;SDS011;40368;49.350;8.152;2023-09-18T01:13:02;24;;;44;;
54458;SDS011;40368;49.350;8.152;2023-09-18T01:14:01;26;;;58;;
54458;SDS011;40368;49.350;8.152;2023-09-18T01:15:01;27;;;52;;
54458;SDS011;40368;49.350;8.152;2023-09-18T01:16:02;23;;;46;;
54458;SDS011;40368;49.350;8.152;2023-09-18T01:17:00;32;;;56;;
54458;SDS011;40368;49.350;8.152;2023-09-18T01:18:02;28;;;57;;
54458;SDS011;40368;49.350;8.152;2023-09-18T01:19:00;29;;;67;;
54458;SDS011;40368;49.350;8.152;2023-09-18T01:20:00;27;;;85;;
54458;SDS011;40368;49.350;8.152;2023-09-18T01:21:00;28;;;52;;
54458;SDS011;40368;49.350;8.152;2023-09-18T01:22:00;31;;;90;;
54458;SDS011;40368;49.350;8.152;2023-09-18T01:23:00;32;;;80;;
54458;SDS011;40368;49.350;8.152;2023-09-18T01:24:00;35;;;75;;
54458;SDS011;40368;49.350;8.152;2023-09-18T01:25:00;32;;;91;;
54458;SDS011;40368;49.350;8.152;2023-09-18T01:26:00;26;;;60;;
54458;SDS011;40368;49.350;8.152;2023-09-18T01:27:00;25;;;55;;
54458;SDS011;40368;49.350;8.152;2023-09-18T01:28:00;27;;;74;;
54458;SDS011;40368;49.350;8.152;2023-09-18T01:29:00;26;;;63;;
54458;SDS011;40368;49.350;8.152;2023-09-18T01:30:00;55;;;236;;
54458;SDS011;40368;49.350;8.152;2023-09-18T01:31:00;41;;;114;;
54458;SDS011;40368;49.350;8.152;2023-09-18T01:32:00;41;;;199;;
54458;SDS011;40368;49.350;8.152;2023-09-18T01:33:00;33;;;89;;
54458;SDS011;40368;49.350;8.152;2023-09-18T01:34:00;30;;;76;;
54458;SDS011;40368;49.350;8.152;2023-09-18T01:35:01;29;;;65;;
54458;SDS011;40368;49.350;8.152;2023-09-18T01:36:00;29;;;62;;
54458;SDS011;40368;49.350;8.152;2023-09-18T01:37:00;29;;;75;;
54458;SDS011;40368;49.350;8.152;2023-09-18T01:38:00;27;;;77;;
54458;SDS011;40368;49.350;8.152;2023-09-18T01:39:01;27;;;71;;
54458;SDS011;40368;49.350;8.152;2023-09-18T01:40:00;27;;;65;;
54458;SDS011;40368;49.350;8.152;2023-09-18T01:41:00;33;;;83;;
54458;SDS011;40368;49.350;8.152;2023-09-18T01:42:00;37;;;69;;
54458;SDS011;40368;49.350;8.152;2023-09-18T01:43:00;31;;;74;;
54458;SDS011;40368;49.350;8.152;2023-09-18T01:44:00;30;;;57;;
54458;SDS011;40368;49.350;8.152;2023-09-18T01:45:00;29;;;85;;
54458;SDS011;40368;49.350;8.152;2023-09-18T01:46:00;28;;;70;;
54458;SDS011;40368;49.350;8.152;2023-09-18T01:47:01;31;;;89;;
54458;SDS011;40368;49.350;8.152;2023-09-18T01:48:00;27;;;64;;
54458;SDS011;40368;49.350;8.152;2023-09-18T01:49:00;27;;;99;;
54458;SDS011;40368;49.350;8.152;2023-09-18T01:50:02;27;;;65;;
54458;SDS011;40368;49.350;8.152;2023-09-18T01:51:00;31;;;83;;
54458;SDS011;40368;49.350;8.152;2023-09-18T01:52:00;29;;;79;;
54458;SDS011;40368;49.350;8.152;2023-09-18T01:53:00;28;;;50;;
54458;SDS011;40368;49.350;8.152;2023-09-18T01:54:00;29;;;67;;
54458;SDS011;40368;49.350;8.152;2023-09-18T01:55:00;26;;;62;;
54458;SDS011;40368;49.350;8.152;2023-09-18T01:56:00;34;;;71;;
54458;SDS011;40368;49.350;8.152;2023-09-18T01:57:00;31;;;115;;
54458;SDS011;40368;49.350;8.152;2023-09-18T01:58:00;27;;;61;;
54458;SDS011;40368;49.350;8.152;2023-09-18T02:00:00;30;;;75;;
54458;SDS011;40368;49.350;8.152;2023-09-18T02:01:00;26;;;71;;
54458;SDS011;40368;49.350;8.152;2023-09-18T02:02:00;30;;;78;;
54458;SDS011;40368;49.350;8.152;2023-09-18T02:03:00;31;;;101;;
54458;SDS011;40368;49.350;8.152;2023-09-18T02:04:00;31;;;92;;
54458;SDS011;40368;49.350;8.152;2023-09-18T02:05:00;27;;;100;;
54458;SDS011;40368;49.350;8.152;2023-09-18T02:06:00;27;;;108;;
54458;SDS011;40368;49.350;8.152;2023-09-18T02:07:00;28;;;74;;
54458;SDS011;40368;49.350;8.152;2023-09-18T02:08:00;26;;;72;;
54458;SDS011;40368;49.350;8.152;2023-09-18T02:09:00;30;;;67;;
54458;SDS011;40368;49.350;8.152;2023-09-18T02:10:00;27;;;61;;
54458;SDS011;40368;49.350;8.152;2023-09-18T02:11:00;28;;;74;;
54458;SDS011;40368;49.350;8.152;2023-09-18T02:12:00;32;;;68;;
54458;SDS011;40368;49.350;8.152;2023-09-18T02:13:00;27;;;89;;
54458;SDS011;40368;49.350;8.152;2023-09-18T02:14:00;27;;;57;;
54458;SDS011;40368;49.350;8.152;2023-09-18T02:15:00;24;;;41;;
54458;SDS011;40368;49.350;8.152;2023-09-18T02:16:00;30;;;88;;
54458;SDS011;40368;49.350;8.152;2023-09-18T02:17:00;25;;;80;;
54458;SDS011;40368;49.350;8.152;2023-09-18T02:18:00;28;;;65;;
54458;SDS011;40368;49.350;8.152;2023-09-18T02:19:00;26;;;89;;
54458;SDS011;40368;49.350;8.152;2023-09-18T02:20:00;28;;;45;;
54458;SDS011;40368;49.350;8.152;2023-09-18T02:21:00;30;;;78;;
54458;SDS011;40368;49.350;8.152;2023-09-18T02:22:00;30;;;188;;
54458;SDS011;40368;49.350;8.152;2023-09-18T02:23:00;35;;;247;;
54458;SDS011;40368;49.350;8.152;2023-09-18T02:24:00;32;;;148;;
54458;SDS011;40368;49.350;8.152;2023-09-18T02:25:00;36;;;235;;
54458;SDS011;40368;49.350;8.152;2023-09-18T02:26:00;37;;;269;;
54458;SDS011;40368;49.350;8.152;2023-09-18T02:27:00;35;;;179;;
54458;SDS011;40368;49.350;8.152;2023-09-18T02:28:00;39;;;230;;
54458;SDS011;40368;49.350;8.152;2023-09-18T02:29:03;37;;;190;;
54458;SDS011;40368;49.350;8.152;2023-09-18T02:30:00;33;;;149;;
54458;SDS011;40368;49.350;8.152;2023-09-18T02:31:00;31;;;147;;
54458;SDS011;40368;49.350;8.152;2023-09-18T02:32:00;33;;;190;;
54458;SDS011;40368;49.350;8.152;2023-09-18T02:33:00;35;;;167;;
54458;SDS011;40368;49.350;8.152;2023-09-18T02:34:00;32;;;157;;
54458;SDS011;40368;49.350;8.152;2023-09-18T02:35:00;34;;;180;;
54458;SDS011;40368;49.350;8.152;2023-09-18T02:36:00;29;;;148;;
54458;SDS011;40368;49.350;8.152;2023-09-18T02:37:00;33;;;128;;
54458;SDS011;40368;49.350;8.152;2023-09-18T02:38:00;28;;;148;;
54458;SDS011;40368;49.350;8.152;2023-09-18T02:39:00;31;;;138;;
54458;SDS011;40368;49.350;8.152;2023-09-18T02:40:00;29;;;141;;
54458;SDS011;40368;49.350;8.152;2023-09-18T02:41:00;27;;;126;;
54458;SDS011;40368;49.350;8.152;2023-09-18T02:42:00;26;;;115;;
54458;SDS011;40368;49.350;8.152;2023-09-18T02:43:00;33;;;131;;
54458;SDS011;40368;49.350;8.152;2023-09-18T02:44:00;34;;;150;;
54458;SDS011;40368;49.350;8.152;2023-09-18T02:45:00;32;;;185;;
54458;SDS011;40368;49.350;8.152;2023-09-18T02:46:00;33;;;172;;
54458;SDS011;40368;49.350;8.152;2023-09-18T02:47:00;27;;;163;;
54458;SDS011;40368;49.350;8.152;2023-09-18T02:48:00;30;;;184;;
54458;SDS011;40368;49.350;8.152;2023-09-18T02:49:00;31;;;152;;
54458;SDS011;40368;49.350;8.152;2023-09-18T02:50:00;33;;;162;;
54458;SDS011;40368;49.350;8.152;2023-09-18T02:51:00;31;;;184;;
54458;SDS011;40368;49.350;8.152;2023-09-18T02:52:00;30;;;173;;
54458;SDS011;40368;49.350;8.152;2023-09-18T02:53:00;33;;;159;;
54458;SDS011;40368;49.350;8.152;2023-09-18T02:54:00;32;;;134;;
54458;SDS011;40368;49.350;8.152;2023-09-18T02:55:00;32;;;164;;
54458;SDS011;40368;49.350;8.152;2023-09-18T02:56:01;32;;;169;;
54458;SDS011;40368;49.350;8.152;2023-09-18T02:57:00;31;;;99;;
54458;SDS011;40368;49.350;8.152;2023-09-18T02:58:00;34;;;149;;
54458;SDS011;40368;49.350;8.152;2023-09-18T02:59:00;29;;;102;;
54458;SDS011;40368;49.350;8.152;2023-09-18T03:00:00;32;;;201;;
54458;SDS011;40368;49.350;8.152;2023-09-18T03:01:00;31;;;178;;
54458;SDS011;40368;49.350;8.152;2023-09-18T03:02:00;34;;;158;;
54458;SDS011;40368;49.350;8.152;2023-09-18T03:03:00;35;;;195;;
54458;SDS011;40368;49.350;8.152;2023-09-18T03:04:00;26;;;78;;
54458;SDS011;40368;49.350;8.152;2023-09-18T03:05:00;25;;;101;;
54458;SDS011;40368;49.350;8.152;2023-09-18T03:06:00;34;;;149;;
54458;SDS011;40368;49.350;8.152;2023-09-18T03:07:00;31;;;136;;
54458;SDS011;40368;49.350;8.152;2023-09-18T03:08:00;25;;;111;;
54458;SDS011;40368;49.350;8.152;2023-09-18T03:09:00;34;;;140;;
54458;SDS011;40368;49.350;8.152;2023-09-18T03:10:00;29;;;121;;
54458;SDS011;40368;49.350;8.152;2023-09-18T03:11:00;29;;;125;;
54458;SDS011;40368;49.350;8.152;2023-09-18T03:12:00;32;;;159;;
54458;SDS011;40368;49.350;8.152;2023-09-18T03:13:00;30;;;131;;
54458;SDS011;40368;49.350;8.152;2023-09-18T03:14:00;28;;;92;;
54458;SDS011;40368;49.350;8.152;2023-09-18T03:15:00;32;;;131;;
54458;SDS011;40368;49.350;8.152;2023-09-18T03:16:00;28;;;151;;
54458;SDS011;40368;49.350;8.152;2023-09-18T03:17:00;29;;;138;;
54458;SDS011;40368;49.350;8.152;2023-09-18T03:18:00;30;;;122;;
54458;SDS011;40368;49.350;8.152;2023-09-18T03:19:00;35;;;138;;
54458;SDS011;40368;49.350;8.152;2023-09-18T03:20:00;30;;;111;;
54458;SDS011;40368;49.350;8.152;2023-09-18T03:21:00;30;;;140;;
54458;SDS011;40368;49.350;8.152;2023-09-18T03:22:00;32;;;127;;
54458;SDS011;40368;49.350;8.152;2023-09-18T03:23:01;30;;;147;;
54458;SDS011;40368;49.350;8.152;2023-09-18T03:25:00;35;;;155;;
54458;SDS011;40368;49.350;8.152;2023-09-18T03:26:00;33;;;200;;
54458;SDS011;40368;49.350;8.152;2023-09-18T03:27:01;27;;;133;;
54458;SDS011;40368;49.350;8.152;2023-09-18T03:28:00;27;;;93;;
54458;SDS011;40368;49.350;8.152;2023-09-18T03:29:00;29;;;108;;
54458;SDS011;40368;49.350;8.152;2023-09-18T03:31:00;30;;;110;;
54458;SDS011;40368;49.350;8.152;2023-09-18T03:32:00;30;;;93;;
54458;SDS011;40368;49.350;8.152;2023-09-18T03:33:00;27;;;92;;
54458;SDS011;40368;49.350;8.152;2023-09-18T03:34:00;31;;;166;;
54458;SDS011;40368;49.350;8.152;2023-09-18T03:35:00;33;;;146;;
54458;SDS011;40368;49.350;8.152;2023-09-18T03:36:00;26;;;139;;
54458;SDS011;40368;49.350;8.152;2023-09-18T03:37:00;30;;;111;;
54458;SDS011;40368;49.350;8.152;2023-09-18T03:38:00;27;;;97;;
54458;SDS011;40368;49.350;8.152;2023-09-18T03:39:00;27;;;95;;
54458;SDS011;40368;49.350;8.152;2023-09-18T03:40:00;27;;;89;;
54458;SDS011;40368;49.350;8.152;2023-09-18T03:41:00;25;;;86;;
54458;SDS011;40368;49.350;8.152;2023-09-18T03:42:00;27;;;120;;
54458;SDS011;40368;49.350;8.152;2023-09-18T03:43:05;28;;;131;;
54458;SDS011;40368;49.350;8.152;2023-09-18T03:44:00;24;;;105;;
54458;SDS011;40368;49.350;8.152;2023-09-18T03:45:00;25;;;142;;
54458;SDS011;40368;49.350;8.152;2023-09-18T03:46:03;25;;;114;;
54458;SDS011;40368;49.350;8.152;2023-09-18T03:47:00;25;;;136;;
54458;SDS011;40368;49.350;8.152;2023-09-18T03:48:00;34;;;144;;
54458;SDS011;40368;49.350;8.152;2023-09-18T03:49:00;26;;;102;;
54458;SDS011;40368;49.350;8.152;2023-09-18T03:50:00;28;;;143;;
54458;SDS011;40368;49.350;8.152;2023-09-18T03:51:00;26;;;113;;
54458;SDS011;40368;49.350;8.152;2023-09-18T03:52:00;27;;;92;;
54458;SDS011;40368;49.350;8.152;2023-09-18T03:53:00;27;;;128;;
54458;SDS011;40368;49.350;8.152;2023-09-18T03:54:00;25;;;106;;
54458;SDS011;40368;49.350;8.152;2023-09-18T03:55:00;33;;;137;;
54458;SDS011;40368;49.350;8.152;2023-09-18T03:56:00;25;;;95;;
54458;SDS011;40368;49.350;8.152;2023-09-18T03:57:00;28;;;123;;
54458;SDS011;40368;49.350;8.152;2023-09-18T03:58:00;27;;;131;;
54458;SDS011;40368;49.350;8.152;2023-09-18T03:59:00;26;;;94;;
54458;SDS011;40368;49.350;8.152;2023-09-18T04:00:00;25;;;120;;
54458;SDS011;40368;49.350;8.152;2023-09-18T04:01:00;28;;;96;;
54458;SDS011;40368;49.350;8.152;2023-09-18T04:02:00;28;;;147;;
54458;SDS011;40368;49.350;8.152;2023-09-18T04:03:00;31;;;100;;
54458;SDS011;40368;49.350;8.152;2023-09-18T04:04:00;25;;;93;;
54458;SDS011;40368;49.350;8.152;2023-09-18T04:05:00;27;;;144;;
54458;SDS011;40368;49.350;8.152;2023-09-18T04:06:00;28;;;105;;
54458;SDS011;40368;49.350;8.152;2023-09-18T04:07:00;29;;;170;;
54458;SDS011;40368;49.350;8.152;2023-09-18T04:08:00;30;;;142;;
54458;SDS011;40368;49.350;8.152;2023-09-18T04:09:00;31;;;132;;
54458;SDS011;40368;49.350;8.152;2023-09-18T04:10:00;26;;;121;;
54458;SDS011;40368;49.350;8.152;2023-09-18T04:11:00;26;;;108;;
54458;SDS011;40368;49.350;8.152;2023-09-18T04:12:00;29;;;108;;
54458;SDS011;40368;49.350;8.152;2023-09-18T04:13:00;27;;;119;;
54458;SDS011;40368;49.350;8.152;2023-09-18T04:14:00;28;;;109;;
54458;SDS011;40368;49.350;8.152;2023-09-18T04:15:00;30;;;117;;
54458;SDS011;40368;49.350;8.152;2023-09-18T04:16:00;31;;;85;;
54458;SDS011;40368;49.350;8.152;2023-09-18T04:17:00;33;;;138;;
54458;SDS011;40368;49.350;8.152;2023-09-18T04:18:00;35;;;196;;
54458;SDS011;40368;49.350;8.152;2023-09-18T04:19:00;36;;;194;;
54458;SDS011;40368;49.350;8.152;2023-09-18T04:20:00;32;;;146;;
54458;SDS011;40368;49.350;8.152;2023-09-18T04:21:00;30;;;121;;
54458;SDS011;40368;49.350;8.152;2023-09-18T04:22:00;30;;;159;;
54458;SDS011;40368;49.350;8.152;2023-09-18T04:24:00;32;;;180;;
54458;SDS011;40368;49.350;8.152;2023-09-18T04:24:05;32;;;154;;
54458;SDS011;40368;49.350;8.152;2023-09-18T04:25:00;34;;;169;;
54458;SDS011;40368;49.350;8.152;2023-09-18T04:26:00;33;;;206;;
54458;SDS011;40368;49.350;8.152;2023-09-18T04:27:00;29;;;136;;
54458;SDS011;40368;49.350;8.152;2023-09-18T04:28:00;30;;;160;;
54458;SDS011;40368;49.350;8.152;2023-09-18T04:29:00;29;;;119;;
54458;SDS011;40368;49.350;8.152;2023-09-18T04:30:00;29;;;173;;
54458;SDS011;40368;49.350;8.152;2023-09-18T04:31:00;29;;;123;;
54458;SDS011;40368;49.350;8.152;2023-09-18T04:32:00;29;;;113;;
54458;SDS011;40368;49.350;8.152;2023-09-18T04:33:00;30;;;125;;
54458;SDS011;40368;49.350;8.152;2023-09-18T04:34:00;30;;;112;;
54458;SDS011;40368;49.350;8.152;2023-09-18T04:35:00;33;;;109;;
54458;SDS011;40368;49.350;8.152;2023-09-18T04:36:00;38;;;163;;
54458;SDS011;40368;49.350;8.152;2023-09-18T04:37:00;36;;;164;;
54458;SDS011;40368;49.350;8.152;2023-09-18T04:38:00;41;;;226;;
54458;SDS011;40368;49.350;8.152;2023-09-18T04:39:00;30;;;127;;
54458;SDS011;40368;49.350;8.152;2023-09-18T04:40:00;25;;;94;;
54458;SDS011;40368;49.350;8.152;2023-09-18T04:41:00;34;;;111;;
54458;SDS011;40368;49.350;8.152;2023-09-18T04:42:01;31;;;145;;
54458;SDS011;40368;49.350;8.152;2023-09-18T04:43:00;32;;;116;;
54458;SDS011;40368;49.350;8.152;2023-09-18T04:44:00;33;;;144;;
54458;SDS011;40368;49.350;8.152;2023-09-18T04:45:00;33;;;130;;
54458;SDS011;40368;49.350;8.152;2023-09-18T04:46:00;35;;;142;;
54458;SDS011;40368;49.350;8.152;2023-09-18T04:47:00;38;;;184;;
54458;SDS011;40368;49.350;8.152;2023-09-18T04:48:00;33;;;102;;
54458;SDS011;40368;49.350;8.152;2023-09-18T04:49:00;34;;;145;;
54458;SDS011;40368;49.350;8.152;2023-09-18T04:50:00;33;;;169;;
54458;SDS011;40368;49.350;8.152;2023-09-18T04:51:00;34;;;136;;
54458;SDS011;40368;49.350;8.152;2023-09-18T04:52:00;34;;;203;;
54458;SDS011;40368;49.350;8.152;2023-09-18T04:53:00;36;;;134;;
54458;SDS011;40368;49.350;8.152;2023-09-18T04:54:00;38;;;181;;
54458;SDS011;40368;49.350;8.152;2023-09-18T04:55:00;31;;;116;;
54458;SDS011;40368;49.350;8.152;2023-09-18T04:56:00;32;;;103;;
54458;SDS011;40368;49.350;8.152;2023-09-18T04:57:05;30;;;93;;
54458;SDS011;40368;49.350;8.152;2023-09-18T04:58:00;29;;;89;;
54458;SDS011;40368;49.350;8.152;2023-09-18T04:59:00;34;;;122;;
54458;SDS011;40368;49.350;8.152;2023-09-18T05:00:00;29;;;124;;
54458;SDS011;40368;49.350;8.152;2023-09-18T05:01:00;33;;;96;;
54458;SDS011;40368;49.350;8.152;2023-09-18T05:02:00;37;;;119;;
54458;SDS011;40368;49.350;8.152;2023-09-18T05:03:00;32;;;119;;
54458;SDS011;40368;49.350;8.152;2023-09-18T05:04:01;28;;;109;;
54458;SDS011;40368;49.350;8.152;2023-09-18T05:05:00;29;;;153;;
54458;SDS011;40368;49.350;8.152;2023-09-18T05:06:00;28;;;104;;
54458;SDS011;40368;49.350;8.152;2023-09-18T05:07:00;29;;;110;;
54458;SDS011;40368;49.350;8.152;2023-09-18T05:08:00;34;;;101;;
54458;SDS011;40368;49.350;8.152;2023-09-18T05:09:00;31;;;149;;
54458;SDS011;40368;49.350;8.152;2023-09-18T05:10:00;32;;;118;;
54458;SDS011;40368;49.350;8.152;2023-09-18T05:11:00;28;;;115;;
54458;SDS011;40368;49.350;8.152;2023-09-18T05:12:00;34;;;138;;
54458;SDS011;40368;49.350;8.152;2023-09-18T05:13:00;32;;;124;;
54458;SDS011;40368;49.350;8.152;2023-09-18T05:14:00;31;;;104;;
54458;SDS011;40368;49.350;8.152;2023-09-18T05:15:00;31;;;93;;
54458;SDS011;40368;49.350;8.152;2023-09-18T05:16:00;29;;;114;;
54458;SDS011;40368;49.350;8.152;2023-09-18T05:17:00;26;;;130;;
54458;SDS011;40368;49.350;8.152;2023-09-18T05:18:00;29;;;110;;
54458;SDS011;40368;49.350;8.152;2023-09-18T05:19:00;28;;;119;;
54458;SDS011;40368;49.350;8.152;2023-09-18T05:20:00;27;;;86;;
54458;SDS011;40368;49.350;8.152;2023-09-18T05:21:00;35;;;128;;
54458;SDS011;40368;49.350;8.152;2023-09-18T05:22:00;33;;;151;;
54458;SDS011;40368;49.350;8.152;2023-09-18T05:23:00;31;;;154;;
54458;SDS011;40368;49.350;8.152;2023-09-18T05:24:00;32;;;113;;
54458;SDS011;40368;49.350;8.152;2023-09-18T05:25:00;30;;;99;;
54458;SDS011;40368;49.350;8.152;2023-09-18T05:26:00;25;;;105;;
54458;SDS011;40368;49.350;8.152;2023-09-18T05:27:00;28;;;115;;
54458;SDS011;40368;49.350;8.152;2023-09-18T05:28:00;25;;;117;;
54458;SDS011;40368;49.350;8.152;2023-09-18T05:29:00;28;;;151;;
54458;SDS011;40368;49.350;8.152;2023-09-18T05:30:00;27;;;113;;
54458;SDS011;40368;49.350;8.152;2023-09-18T05:31:00;25;;;102;;
54458;SDS011;40368;49.350;8.152;2023-09-18T05:32:00;30;;;119;;
54458;SDS011;40368;49.350;8.152;2023-09-18T05:33:00;27;;;132;;
54458;SDS011;40368;49.350;8.152;2023-09-18T05:34:00;25;;;105;;
54458;SDS011;40368;49.350;8.152;2023-09-18T05:35:00;23;;;85;;
54458;SDS011;40368;49.350;8.152;2023-09-18T05:36:00;27;;;127;;
54458;SDS011;40368;49.350;8.152;2023-09-18T05:37:00;25;;;73;;
54458;SDS011;40368;49.350;8.152;2023-09-18T05:38:00;29;;;114;;
54458;SDS011;40368;49.350;8.152;2023-09-18T05:39:00;31;;;134;;
54458;SDS011;40368;49.350;8.152;2023-09-18T05:40:00;25;;;104;;
54458;SDS011;40368;49.350;8.152;2023-09-18T05:41:00;24;;;83;;
54458;SDS011;40368;49.350;8.152;2023-09-18T05:42:00;23;;;69;;
54458;SDS011;40368;49.350;8.152;2023-09-18T05:43:00;26;;;124;;
54458;SDS011;40368;49.350;8.152;2023-09-18T05:44:00;23;;;76;;
54458;SDS011;40368;49.350;8.152;2023-09-18T05:45:00;27;;;115;;
54458;SDS011;40368;49.350;8.152;2023-09-18T05:46:00;26;;;123;;
54458;SDS011;40368;49.350;8.152;2023-09-18T05:47:00;25;;;115;;
54458;SDS011;40368;49.350;8.152;2023-09-18T05:48:00;26;;;79;;
54458;SDS011;40368;49.350;8.152;2023-09-18T05:49:00;25;;;110;;
54458;SDS011;40368;49.350;8.152;2023-09-18T05:50:00;24;;;107;;
54458;SDS011;40368;49.350;8.152;2023-09-18T05:51:00;28;;;109;;
54458;SDS011;40368;49.350;8.152;2023-09-18T05:52:00;30;;;146;;
54458;SDS011;40368;49.350;8.152;2023-09-18T05:53:00;31;;;129;;
54458;SDS011;40368;49.350;8.152;2023-09-18T05:54:00;26;;;114;;
54458;SDS011;40368;49.350;8.152;2023-09-18T05:55:00;28;;;93;;
54458;SDS011;40368;49.350;8.152;2023-09-18T05:56:00;29;;;129;;
54458;SDS011;40368;49.350;8.152;2023-09-18T05:57:00;26;;;115;;
54458;SDS011;40368;49.350;8.152;2023-09-18T05:58:00;23;;;76;;
54458;SDS011;40368;49.350;8.152;2023-09-18T05:59:00;27;;;87;;
54458;SDS011;40368;49.350;8.152;2023-09-18T06:00:00;26;;;129;;
54458;SDS011;40368;49.350;8.152;2023-09-18T06:01:00;25;;;108;;
54458;SDS011;40368;49.350;8.152;2023-09-18T06:02:00;29;;;139;;
54458;SDS011;40368;49.350;8.152;2023-09-18T06:03:00;24;;;97;;
54458;SDS011;40368;49.350;8.152;2023-09-18T06:04:00;24;;;125;;
54458;SDS011;40368;49.350;8.152;2023-09-18T06:05:00;22;;;129;;
54458;SDS011;40368;49.350;8.152;2023-09-18T06:06:00;34;;;115;;
54458;SDS011;40368;49.350;8.152;2023-09-18T06:07:00;21;;;104;;
54458;SDS011;40368;49.350;8.152;2023-09-18T06:08:00;28;;;131;;
54458;SDS011;40368;49.350;8.152;2023-09-18T06:09:00;27;;;115;;
54458;SDS011;40368;49.350;8.152;2023-09-18T06:10:00;31;;;137;;
54458;SDS011;40368;49.350;8.152;2023-09-18T06:11:00;27;;;123;;
54458;SDS011;40368;49.350;8.152;2023-09-18T06:12:00;26;;;117;;
54458;SDS011;40368;49.350;8.152;2023-09-18T06:13:00;27;;;128;;
54458;SDS011;40368;49.350;8.152;2023-09-18T06:14:00;27;;;122;;
54458;SDS011;40368;49.350;8.152;2023-09-18T06:15:00;26;;;93;;
54458;SDS011;40368;49.350;8.152;2023-09-18T06:16:00;25;;;142;;
54458;SDS011;40368;49.350;8.152;2023-09-18T06:17:00;28;;;131;;
54458;SDS011;40368;49.350;8.152;2023-09-18T06:18:00;26;;;122;;
54458;SDS011;40368;49.350;8.152;2023-09-18T06:19:00;23;;;94;;
54458;SDS011;40368;49.350;8.152;2023-09-18T06:20:00;23;;;94;;
54458;SDS011;40368;49.350;8.152;2023-09-18T06:21:00;25;;;111;;
54458;SDS011;40368;49.350;8.152;2023-09-18T06:22:00;25;;;116;;
54458;SDS011;40368;49.350;8.152;2023-09-18T06:23:00;27;;;104;;
54458;SDS011;40368;49.350;8.152;2023-09-18T06:24:00;25;;;131;;
54458;SDS011;40368;49.350;8.152;2023-09-18T06:25:00;25;;;92;;
54458;SDS011;40368;49.350;8.152;2023-09-18T06:26:00;21;;;104;;